sensor_id;sensor_type;location;lat;lon;timestamp;temperature;humidity
42833;DHT22;64089;51.478;5.692;2024-03-23T00:55:38;7.60;99.90
42833;DHT22;64089;51.478;5.692;2024-03-23T00:58:04;7.60;99.90
42833;DHT22;64089;51.478;5.692;2024-03-23T01:00:29;7.60;99.90
42833;DHT22;64089;51.478;5.692;2024-03-23T01:02:55;7.50;99.90
42833;DHT22;64089;51.478;5.692;2024-03-23T01:05:21;7.60;99.90
42833;DHT22;64089;51.478;5.692;2024-03-23T01:07:46;7.60;99.90
42833;DHT22;64089;51.478;5.692;2024-03-23T01:10:12;7.50;99.90
42833;DHT22;64089;51.478;5.692;2024-03-23T01:12:38;7.60;99.90
42833;DHT22;64089;51.478;5.692;2024-03-23T01:15:04;7.40;99.90
42833;DHT22;64089;51.478;5.692;2024-03-23T01:17:30;7.40;99.90
42833;DHT22;64089;51.478;5.692;2024-03-23T01:19:55;7.40;99.90
42833;DHT22;64089;51.478;5.692;2024-03-23T01:22:21;7.30;99.90
42833;DHT22;64089;51.478;5.692;2024-03-23T01:24:46;7.30;99.90
42833;DHT22;64089;51.478;5.692;2024-03-23T01:27:12;7.30;99.90
42833;DHT22;64089;51.478;5.692;2024-03-23T01:29:37;7.30;99.90
42833;DHT22;64089;51.478;5.692;2024-03-23T01:32:04;7.30;99.90
42833;DHT22;64089;51.478;5.692;2024-03-23T01:34:30;7.30;99.90
42833;DHT22;64089;51.478;5.692;2024-03-23T01:36:55;7.30;99.90
42833;DHT22;64089;51.478;5.692;2024-03-23T01:39:21;7.30;99.90
42833;DHT22;64089;51.478;5.692;2024-03-23T01:41:47;7.30;99.90
42833;DHT22;64089;51.478;5.692;2024-03-23T01:44:12;7.20;99.90
42833;DHT22;64089;51.478;5.692;2024-03-23T01:46:39;7.30;99.90
42833;DHT22;64089;51.478;5.692;2024-03-23T01:49:07;7.20;99.90
42833;DHT22;64089;51.478;5.692;2024-03-23T01:51:33;7.10;99.90
42833;DHT22;64089;51.478;5.692;2024-03-23T01:54:00;7.10;99.90
42833;DHT22;64089;51.478;5.692;2024-03-23T01:56:29;7.20;99.90
42833;DHT22;64089;51.478;5.692;2024-03-23T01:58:55;7.10;99.90
42833;DHT22;64089;51.478;5.692;2024-03-23T02:01:21;7.10;99.90
42833;DHT22;64089;51.478;5.692;2024-03-23T02:03:46;7.10;99.90
42833;DHT22;64089;51.478;5.692;2024-03-23T02:06:12;7.10;99.90
42833;DHT22;64089;51.478;5.692;2024-03-23T02:08:38;7.00;99.90
42833;DHT22;64089;51.478;5.692;2024-03-23T02:11:04;7.00;99.90
42833;DHT22;64089;51.478;5.692;2024-03-23T02:13:30;7.00;99.90
42833;DHT22;64089;51.478;5.692;2024-03-23T02:15:57;7.00;99.90
42833;DHT22;64089;51.478;5.692;2024-03-23T02:18:23;7.00;99.90
42833;DHT22;64089;51.478;5.692;2024-03-23T02:20:48;6.90;99.90
42833;DHT22;64089;51.478;5.692;2024-03-23T02:23:15;7.00;99.90
42833;DHT22;64089;51.478;5.692;2024-03-23T02:25:41;7.00;99.90
42833;DHT22;64089;51.478;5.692;2024-03-23T02:28:07;7.00;99.90
42833;DHT22;64089;51.478;5.692;2024-03-23T02:30:32;7.00;99.90
42833;DHT22;64089;51.478;5.692;2024-03-23T02:32:58;7.00;99.90
42833;DHT22;64089;51.478;5.692;2024-03-23T02:35:23;7.00;99.90
42833;DHT22;64089;51.478;5.692;2024-03-23T02:37:49;7.00;99.90
42833;DHT22;64089;51.478;5.692;2024-03-23T02:40:16;7.00;99.90
42833;DHT22;64089;51.478;5.692;2024-03-23T02:42:42;6.90;99.90
42833;DHT22;64089;51.478;5.692;2024-03-23T02:45:07;7.00;99.90
42833;DHT22;64089;51.478;5.692;2024-03-23T02:47:33;6.90;99.90
42833;DHT22;64089;51.478;5.692;2024-03-23T02:49:58;6.90;99.90
42833;DHT22;64089;51.478;5.692;2024-03-23T02:52:24;7.00;99.90
42833;DHT22;64089;51.478;5.692;2024-03-23T02:54:50;6.90;99.90
42833;DHT22;64089;51.478;5.692;2024-03-23T02:57:15;6.90;99.90
42833;DHT22;64089;51.478;5.692;2024-03-23T02:59:41;6.90;99.90
42833;DHT22;64089;51.478;5.692;2024-03-23T03:02:07;6.90;99.90
42833;DHT22;64089;51.478;5.692;2024-03-23T03:04:33;6.90;99.90
42833;DHT22;64089;51.478;5.692;2024-03-23T03:06:58;6.90;99.90
42833;DHT22;64089;51.478;5.692;2024-03-23T03:09:24;6.90;99.90
42833;DHT22;64089;51.478;5.692;2024-03-23T03:11:50;6.90;99.90
42833;DHT22;64089;51.478;5.692;2024-03-23T03:14:15;6.90;99.90
42833;DHT22;64089;51.478;5.692;2024-03-23T03:16:41;6.90;99.90
42833;DHT22;64089;51.478;5.692;2024-03-23T03:19:06;6.80;99.90
42833;DHT22;64089;51.478;5.692;2024-03-23T03:21:32;6.90;99.90
42833;DHT22;64089;51.478;5.692;2024-03-23T03:23:58;6.90;99.90
42833;DHT22;64089;51.478;5.692;2024-03-23T03:26:24;6.90;99.90
42833;DHT22;64089;51.478;5.692;2024-03-23T03:28:50;6.90;99.90
42833;DHT22;64089;51.478;5.692;2024-03-23T03:31:16;6.90;99.90
42833;DHT22;64089;51.478;5.692;2024-03-23T03:33:42;6.90;99.90
42833;DHT22;64089;51.478;5.692;2024-03-23T03:36:08;6.90;99.90
42833;DHT22;64089;51.478;5.692;2024-03-23T03:38:34;6.80;99.90
42833;DHT22;64089;51.478;5.692;2024-03-23T03:41:03;6.90;99.90
42833;DHT22;64089;51.478;5.692;2024-03-23T03:43:29;6.80;99.90
42833;DHT22;64089;51.478;5.692;2024-03-23T03:45:56;6.80;99.90
42833;DHT22;64089;51.478;5.692;2024-03-23T03:48:22;6.80;99.90
42833;DHT22;64089;51.478;5.692;2024-03-23T03:50:47;6.80;99.90
42833;DHT22;64089;51.478;5.692;2024-03-23T03:53:13;6.80;99.90
42833;DHT22;64089;51.478;5.692;2024-03-23T03:55:39;6.80;99.90
42833;DHT22;64089;51.478;5.692;2024-03-23T03:58:05;6.70;99.90
42833;DHT22;64089;51.478;5.692;2024-03-23T04:00:30;6.60;99.90
42833;DHT22;64089;51.478;5.692;2024-03-23T04:02:56;6.60;99.90
42833;DHT22;64089;51.478;5.692;2024-03-23T04:05:22;6.50;99.90
42833;DHT22;64089;51.478;5.692;2024-03-23T04:07:48;6.50;99.90
42833;DHT22;64089;51.478;5.692;2024-03-23T04:10:14;6.50;99.90
42833;DHT22;64089;51.478;5.692;2024-03-23T04:12:43;6.40;99.90
42833;DHT22;64089;51.478;5.692;2024-03-23T04:15:10;6.40;99.90
42833;DHT22;64089;51.478;5.692;2024-03-23T04:17:35;6.40;99.90
42833;DHT22;64089;51.478;5.692;2024-03-23T04:20:02;6.30;99.90
42833;DHT22;64089;51.478;5.692;2024-03-23T04:22:29;6.30;99.90
42833;DHT22;64089;51.478;5.692;2024-03-23T04:24:56;6.20;99.90
42833;DHT22;64089;51.478;5.692;2024-03-23T04:27:25;6.20;99.90
42833;DHT22;64089;51.478;5.692;2024-03-23T04:29:51;6.10;99.90
42833;DHT22;64089;51.478;5.692;2024-03-23T04:32:18;6.10;99.90
42833;DHT22;64089;51.478;5.692;2024-03-23T04:34:44;6.10;99.90
42833;DHT22;64089;51.478;5.692;2024-03-23T04:37:10;6.00;99.90
42833;DHT22;64089;51.478;5.692;2024-03-23T04:39:36;6.00;99.90
42833;DHT22;64089;51.478;5.692;2024-03-23T04:42:02;6.00;99.90
42833;DHT22;64089;51.478;5.692;2024-03-23T04:44:28;5.90;99.90
42833;DHT22;64089;51.478;5.692;2024-03-23T04:46:54;5.90;99.90
42833;DHT22;64089;51.478;5.692;2024-03-23T04:49:19;5.80;99.90
42833;DHT22;64089;51.478;5.692;2024-03-23T04:51:45;5.80;99.90
42833;DHT22;64089;51.478;5.692;2024-03-23T04:54:15;5.80;99.90
42833;DHT22;64089;51.478;5.692;2024-03-23T04:56:40;5.70;99.90
42833;DHT22;64089;51.478;5.692;2024-03-23T04:59:06;5.70;99.90
42833;DHT22;64089;51.478;5.692;2024-03-23T05:01:32;5.70;99.90
42833;DHT22;64089;51.478;5.692;2024-03-23T05:03:58;5.70;99.90
42833;DHT22;64089;51.478;5.692;2024-03-23T05:06:25;5.70;99.90
42833;DHT22;64089;51.478;5.692;2024-03-23T05:08:51;5.70;99.90
42833;DHT22;64089;51.478;5.692;2024-03-23T05:11:17;5.60;99.90
42833;DHT22;64089;51.478;5.692;2024-03-23T05:13:44;5.60;99.90
42833;DHT22;64089;51.478;5.692;2024-03-23T05:16:09;5.60;99.90
42833;DHT22;64089;51.478;5.692;2024-03-23T05:18:35;5.60;99.90
42833;DHT22;64089;51.478;5.692;2024-03-23T05:21:01;5.60;99.90
42833;DHT22;64089;51.478;5.692;2024-03-23T05:23:28;5.60;99.90
42833;DHT22;64089;51.478;5.692;2024-03-23T05:25:54;5.50;99.90
42833;DHT22;64089;51.478;5.692;2024-03-23T05:28:21;5.50;99.90
42833;DHT22;64089;51.478;5.692;2024-03-23T05:30:53;5.50;99.90
42833;DHT22;64089;51.478;5.692;2024-03-23T05:33:20;5.50;99.90
42833;DHT22;64089;51.478;5.692;2024-03-23T05:35:46;5.50;99.90
42833;DHT22;64089;51.478;5.692;2024-03-23T05:38:11;5.50;99.90
42833;DHT22;64089;51.478;5.692;2024-03-23T05:40:37;5.50;99.90
42833;DHT22;64089;51.478;5.692;2024-03-23T05:43:08;5.50;99.90
42833;DHT22;64089;51.478;5.692;2024-03-23T05:45:34;5.50;99.90
42833;DHT22;64089;51.478;5.692;2024-03-23T05:48:00;5.60;99.90
42833;DHT22;64089;51.478;5.692;2024-03-23T05:50:25;5.60;99.90
42833;DHT22;64089;51.478;5.692;2024-03-23T05:52:51;5.60;99.90
42833;DHT22;64089;51.478;5.692;2024-03-23T05:55:17;5.60;99.90
42833;DHT22;64089;51.478;5.692;2024-03-23T05:57:42;5.60;99.90
42833;DHT22;64089;51.478;5.692;2024-03-23T06:00:08;5.60;99.90
42833;DHT22;64089;51.478;5.692;2024-03-23T06:02:42;5.70;99.90
42833;DHT22;64089;51.478;5.692;2024-03-23T06:05:12;5.70;99.90
42833;DHT22;64089;51.478;5.692;2024-03-23T06:07:38;5.70;99.90
42833;DHT22;64089;51.478;5.692;2024-03-23T06:10:05;5.70;99.90
42833;DHT22;64089;51.478;5.692;2024-03-23T06:12:31;5.70;99.90
42833;DHT22;64089;51.478;5.692;2024-03-23T06:14:57;5.70;99.90
42833;DHT22;64089;51.478;5.692;2024-03-23T06:17:22;5.80;99.90
42833;DHT22;64089;51.478;5.692;2024-03-23T06:19:48;5.80;99.90
42833;DHT22;64089;51.478;5.692;2024-03-23T06:22:14;5.80;99.90
42833;DHT22;64089;51.478;5.692;2024-03-23T06:24:40;5.80;99.90
42833;DHT22;64089;51.478;5.692;2024-03-23T06:27:06;5.80;99.90
42833;DHT22;64089;51.478;5.692;2024-03-23T06:29:31;5.90;99.90
42833;DHT22;64089;51.478;5.692;2024-03-23T06:31:57;5.90;99.90
42833;DHT22;64089;51.478;5.692;2024-03-23T06:34:23;5.90;99.90
42833;DHT22;64089;51.478;5.692;2024-03-23T06:36:49;6.00;99.90
42833;DHT22;64089;51.478;5.692;2024-03-23T06:39:15;6.00;99.90
42833;DHT22;64089;51.478;5.692;2024-03-23T06:41:42;6.20;99.90
42833;DHT22;64089;51.478;5.692;2024-03-23T06:44:08;6.40;99.90
42833;DHT22;64089;51.478;5.692;2024-03-23T06:46:33;6.50;99.90
42833;DHT22;64089;51.478;5.692;2024-03-23T06:48:59;6.70;99.90
42833;DHT22;64089;51.478;5.692;2024-03-23T06:51:25;6.70;99.90
42833;DHT22;64089;51.478;5.692;2024-03-23T06:53:50;6.80;99.90
42833;DHT22;64089;51.478;5.692;2024-03-23T06:56:16;6.70;99.90
42833;DHT22;64089;51.478;5.692;2024-03-23T06:58:41;6.70;99.90
42833;DHT22;64089;51.478;5.692;2024-03-23T07:01:07;6.60;99.90
42833;DHT22;64089;51.478;5.692;2024-03-23T07:03:33;6.50;99.90
42833;DHT22;64089;51.478;5.692;2024-03-23T07:05:58;6.50;99.90
42833;DHT22;64089;51.478;5.692;2024-03-23T07:08:24;6.50;99.90
42833;DHT22;64089;51.478;5.692;2024-03-23T07:10:50;6.70;99.90
42833;DHT22;64089;51.478;5.692;2024-03-23T07:13:15;6.80;99.90
42833;DHT22;64089;51.478;5.692;2024-03-23T07:15:42;6.70;99.90
42833;DHT22;64089;51.478;5.692;2024-03-23T07:18:08;6.70;99.90
42833;DHT22;64089;51.478;5.692;2024-03-23T07:20:34;6.70;99.90
42833;DHT22;64089;51.478;5.692;2024-03-23T07:22:59;6.60;99.90
42833;DHT22;64089;51.478;5.692;2024-03-23T07:25:25;6.50;99.90
42833;DHT22;64089;51.478;5.692;2024-03-23T07:27:53;6.50;99.90
42833;DHT22;64089;51.478;5.692;2024-03-23T07:30:19;6.50;99.90
42833;DHT22;64089;51.478;5.692;2024-03-23T07:32:45;6.80;99.90
42833;DHT22;64089;51.478;5.692;2024-03-23T07:35:11;7.10;99.90
42833;DHT22;64089;51.478;5.692;2024-03-23T07:37:36;7.10;99.90
42833;DHT22;64089;51.478;5.692;2024-03-23T07:40:02;7.20;99.90
42833;DHT22;64089;51.478;5.692;2024-03-23T07:42:28;7.10;99.90
42833;DHT22;64089;51.478;5.692;2024-03-23T07:44:54;7.00;99.90
42833;DHT22;64089;51.478;5.692;2024-03-23T07:47:22;7.10;99.90
42833;DHT22;64089;51.478;5.692;2024-03-23T07:49:48;7.00;99.90
42833;DHT22;64089;51.478;5.692;2024-03-23T07:52:14;7.00;99.90
42833;DHT22;64089;51.478;5.692;2024-03-23T07:54:39;7.00;99.90
42833;DHT22;64089;51.478;5.692;2024-03-23T07:57:05;7.10;99.90
42833;DHT22;64089;51.478;5.692;2024-03-23T07:59:32;7.10;99.90
42833;DHT22;64089;51.478;5.692;2024-03-23T08:01:59;7.10;99.90
42833;DHT22;64089;51.478;5.692;2024-03-23T08:04:25;7.20;99.90
42833;DHT22;64089;51.478;5.692;2024-03-23T08:06:51;7.20;99.90
42833;DHT22;64089;51.478;5.692;2024-03-23T08:09:16;7.20;99.90
42833;DHT22;64089;51.478;5.692;2024-03-23T08:11:42;7.30;99.90
42833;DHT22;64089;51.478;5.692;2024-03-23T08:14:10;7.40;99.90
42833;DHT22;64089;51.478;5.692;2024-03-23T08:16:36;7.40;99.90
42833;DHT22;64089;51.478;5.692;2024-03-23T08:19:02;7.50;99.90
42833;DHT22;64089;51.478;5.692;2024-03-23T08:21:29;7.50;99.90
42833;DHT22;64089;51.478;5.692;2024-03-23T08:23:54;7.60;99.90
42833;DHT22;64089;51.478;5.692;2024-03-23T08:26:20;7.60;99.90
42833;DHT22;64089;51.478;5.692;2024-03-23T08:28:46;7.60;99.90
42833;DHT22;64089;51.478;5.692;2024-03-23T08:31:12;7.70;99.90
42833;DHT22;64089;51.478;5.692;2024-03-23T08:33:38;7.90;99.90
42833;DHT22;64089;51.478;5.692;2024-03-23T08:36:07;7.90;99.90
42833;DHT22;64089;51.478;5.692;2024-03-23T08:38:33;8.00;99.90
42833;DHT22;64089;51.478;5.692;2024-03-23T08:41:09;8.10;99.90
42833;DHT22;64089;51.478;5.692;2024-03-23T08:43:39;8.30;99.90
42833;DHT22;64089;51.478;5.692;2024-03-23T08:46:09;8.40;99.90
42833;DHT22;64089;51.478;5.692;2024-03-23T08:48:36;8.30;99.90
42833;DHT22;64089;51.478;5.692;2024-03-23T08:51:06;8.10;99.90
42833;DHT22;64089;51.478;5.692;2024-03-23T08:53:34;8.20;99.90
42833;DHT22;64089;51.478;5.692;2024-03-23T08:56:00;8.20;99.90
42833;DHT22;64089;51.478;5.692;2024-03-23T08:58:28;8.20;99.90
42833;DHT22;64089;51.478;5.692;2024-03-23T09:00:56;8.10;99.90
42833;DHT22;64089;51.478;5.692;2024-03-23T09:03:22;8.10;99.90
42833;DHT22;64089;51.478;5.692;2024-03-23T09:05:48;7.90;99.90
42833;DHT22;64089;51.478;5.692;2024-03-23T09:08:14;8.00;99.90
42833;DHT22;64089;51.478;5.692;2024-03-23T09:10:40;8.00;99.90
42833;DHT22;64089;51.478;5.692;2024-03-23T09:13:06;8.00;99.90
42833;DHT22;64089;51.478;5.692;2024-03-23T09:15:37;8.00;99.90
42833;DHT22;64089;51.478;5.692;2024-03-23T09:18:03;8.00;99.90
42833;DHT22;64089;51.478;5.692;2024-03-23T09:20:32;7.90;99.90
42833;DHT22;64089;51.478;5.692;2024-03-23T09:22:57;7.60;99.90
42833;DHT22;64089;51.478;5.692;2024-03-23T09:25:23;6.80;99.90
42833;DHT22;64089;51.478;5.692;2024-03-23T09:27:49;6.00;99.90
42833;DHT22;64089;51.478;5.692;2024-03-23T09:30:15;5.50;99.90
42833;DHT22;64089;51.478;5.692;2024-03-23T09:32:44;5.30;99.90
42833;DHT22;64089;51.478;5.692;2024-03-23T09:35:10;5.40;99.90
42833;DHT22;64089;51.478;5.692;2024-03-23T09:37:36;5.70;99.90
42833;DHT22;64089;51.478;5.692;2024-03-23T09:40:02;5.90;99.90
42833;DHT22;64089;51.478;5.692;2024-03-23T09:42:28;6.10;99.90
42833;DHT22;64089;51.478;5.692;2024-03-23T09:44:57;6.30;99.90
42833;DHT22;64089;51.478;5.692;2024-03-23T09:47:24;6.40;99.90
42833;DHT22;64089;51.478;5.692;2024-03-23T09:49:50;6.50;99.90
42833;DHT22;64089;51.478;5.692;2024-03-23T09:52:16;6.50;99.90
42833;DHT22;64089;51.478;5.692;2024-03-23T09:54:42;6.60;99.90
42833;DHT22;64089;51.478;5.692;2024-03-23T09:57:08;6.70;99.90
42833;DHT22;64089;51.478;5.692;2024-03-23T09:59:33;6.80;99.90
42833;DHT22;64089;51.478;5.692;2024-03-23T10:02:03;7.00;99.90
42833;DHT22;64089;51.478;5.692;2024-03-23T10:04:41;7.10;99.90
42833;DHT22;64089;51.478;5.692;2024-03-23T10:07:19;7.10;99.90
42833;DHT22;64089;51.478;5.692;2024-03-23T10:09:45;7.20;99.90
42833;DHT22;64089;51.478;5.692;2024-03-23T10:12:14;7.30;99.90
42833;DHT22;64089;51.478;5.692;2024-03-23T10:14:40;7.40;99.90
42833;DHT22;64089;51.478;5.692;2024-03-23T10:17:19;7.50;99.90
42833;DHT22;64089;51.478;5.692;2024-03-23T10:19:49;7.80;99.90
42833;DHT22;64089;51.478;5.692;2024-03-23T10:22:19;8.00;99.90
42833;DHT22;64089;51.478;5.692;2024-03-23T10:24:45;8.10;99.90
42833;DHT22;64089;51.478;5.692;2024-03-23T10:27:21;8.10;99.90
42833;DHT22;64089;51.478;5.692;2024-03-23T10:29:48;8.00;99.90
42833;DHT22;64089;51.478;5.692;2024-03-23T10:32:18;7.70;99.90
42833;DHT22;64089;51.478;5.692;2024-03-23T10:34:44;7.50;99.90
42833;DHT22;64089;51.478;5.692;2024-03-23T10:37:10;7.30;99.90
42833;DHT22;64089;51.478;5.692;2024-03-23T10:39:39;7.20;99.90
42833;DHT22;64089;51.478;5.692;2024-03-23T10:42:09;7.10;99.90
42833;DHT22;64089;51.478;5.692;2024-03-23T10:44:38;7.10;99.90
42833;DHT22;64089;51.478;5.692;2024-03-23T10:47:05;7.40;99.90
42833;DHT22;64089;51.478;5.692;2024-03-23T10:49:32;7.70;99.90
42833;DHT22;64089;51.478;5.692;2024-03-23T10:52:01;7.90;99.90
42833;DHT22;64089;51.478;5.692;2024-03-23T10:54:27;8.20;99.90
42833;DHT22;64089;51.478;5.692;2024-03-23T10:57:15;8.50;99.90
42833;DHT22;64089;51.478;5.692;2024-03-23T10:59:43;8.60;99.90
42833;DHT22;64089;51.478;5.692;2024-03-23T11:02:19;8.80;99.90
42833;DHT22;64089;51.478;5.692;2024-03-23T11:04:45;8.80;99.90
42833;DHT22;64089;51.478;5.692;2024-03-23T11:07:32;8.90;99.90
42833;DHT22;64089;51.478;5.692;2024-03-23T11:09:59;9.30;99.90
42833;DHT22;64089;51.478;5.692;2024-03-23T11:12:25;9.40;99.90
42833;DHT22;64089;51.478;5.692;2024-03-23T11:15:11;9.60;99.90
42833;DHT22;64089;51.478;5.692;2024-03-23T11:17:37;9.80;99.90
42833;DHT22;64089;51.478;5.692;2024-03-23T11:20:03;9.80;99.90
42833;DHT22;64089;51.478;5.692;2024-03-23T11:25:19;9.70;99.90
42833;DHT22;64089;51.478;5.692;2024-03-23T11:27:47;9.60;99.90
42833;DHT22;64089;51.478;5.692;2024-03-23T11:30:22;9.20;99.90
42833;DHT22;64089;51.478;5.692;2024-03-23T11:32:50;9.00;99.90
42833;DHT22;64089;51.478;5.692;2024-03-23T11:35:32;9.10;99.90
42833;DHT22;64089;51.478;5.692;2024-03-23T11:38:15;9.50;99.90
42833;DHT22;64089;51.478;5.692;2024-03-23T11:40:42;9.80;99.90
42833;DHT22;64089;51.478;5.692;2024-03-23T11:43:09;9.80;99.90
42833;DHT22;64089;51.478;5.692;2024-03-23T11:45:47;9.80;99.90
42833;DHT22;64089;51.478;5.692;2024-03-23T11:48:17;9.90;99.90
42833;DHT22;64089;51.478;5.692;2024-03-23T11:50:46;9.80;99.90
42833;DHT22;64089;51.478;5.692;2024-03-23T11:53:12;9.70;99.90
42833;DHT22;64089;51.478;5.692;2024-03-23T11:58:16;9.20;99.90
42833;DHT22;64089;51.478;5.692;2024-03-23T12:00:42;9.10;99.90
42833;DHT22;64089;51.478;5.692;2024-03-23T12:03:08;9.20;99.90
42833;DHT22;64089;51.478;5.692;2024-03-23T12:05:37;9.10;99.90
42833;DHT22;64089;51.478;5.692;2024-03-23T12:10:44;9.20;99.90
42833;DHT22;64089;51.478;5.692;2024-03-23T12:13:11;9.00;99.90
42833;DHT22;64089;51.478;5.692;2024-03-23T12:15:36;8.60;99.90
42833;DHT22;64089;51.478;5.692;2024-03-23T12:18:08;8.40;99.90
42833;DHT22;64089;51.478;5.692;2024-03-23T12:20:34;8.30;99.90
42833;DHT22;64089;51.478;5.692;2024-03-23T12:23:13;8.20;99.90
42833;DHT22;64089;51.478;5.692;2024-03-23T12:25:39;8.30;99.90
42833;DHT22;64089;51.478;5.692;2024-03-23T12:28:05;8.20;99.90
42833;DHT22;64089;51.478;5.692;2024-03-23T12:30:38;8.10;99.90
42833;DHT22;64089;51.478;5.692;2024-03-23T12:33:04;8.00;99.90
42833;DHT22;64089;51.478;5.692;2024-03-23T12:35:30;8.00;99.90
42833;DHT22;64089;51.478;5.692;2024-03-23T12:37:55;8.10;99.90
42833;DHT22;64089;51.478;5.692;2024-03-23T12:40:21;8.60;99.90
42833;DHT22;64089;51.478;5.692;2024-03-23T12:42:47;8.70;99.90
42833;DHT22;64089;51.478;5.692;2024-03-23T12:45:13;8.50;99.90
42833;DHT22;64089;51.478;5.692;2024-03-23T12:47:39;8.60;99.90
42833;DHT22;64089;51.478;5.692;2024-03-23T12:50:05;8.50;99.90
42833;DHT22;64089;51.478;5.692;2024-03-23T12:52:31;8.70;99.90
42833;DHT22;64089;51.478;5.692;2024-03-23T12:54:57;8.80;99.90
42833;DHT22;64089;51.478;5.692;2024-03-23T12:57:24;8.70;99.90
42833;DHT22;64089;51.478;5.692;2024-03-23T12:59:50;8.50;99.90
42833;DHT22;64089;51.478;5.692;2024-03-23T13:02:18;8.60;99.90
42833;DHT22;64089;51.478;5.692;2024-03-23T13:04:44;8.70;99.90
42833;DHT22;64089;51.478;5.692;2024-03-23T13:07:10;8.80;99.90
42833;DHT22;64089;51.478;5.692;2024-03-23T13:09:36;8.80;99.90
42833;DHT22;64089;51.478;5.692;2024-03-23T13:12:01;8.70;99.90
42833;DHT22;64089;51.478;5.692;2024-03-23T13:14:27;8.50;99.90
42833;DHT22;64089;51.478;5.692;2024-03-23T13:16:53;8.30;99.90
42833;DHT22;64089;51.478;5.692;2024-03-23T13:19:18;8.50;99.90
42833;DHT22;64089;51.478;5.692;2024-03-23T13:21:45;8.60;99.90
42833;DHT22;64089;51.478;5.692;2024-03-23T13:24:11;8.70;99.90
42833;DHT22;64089;51.478;5.692;2024-03-23T13:26:36;9.10;99.90
42833;DHT22;64089;51.478;5.692;2024-03-23T13:29:02;9.00;99.90
42833;DHT22;64089;51.478;5.692;2024-03-23T13:31:27;9.20;99.90
42833;DHT22;64089;51.478;5.692;2024-03-23T13:33:53;9.50;99.90
42833;DHT22;64089;51.478;5.692;2024-03-23T13:36:19;9.40;99.90
42833;DHT22;64089;51.478;5.692;2024-03-23T13:38:44;9.70;99.90
42833;DHT22;64089;51.478;5.692;2024-03-23T13:41:10;9.70;99.90
42833;DHT22;64089;51.478;5.692;2024-03-23T13:43:38;9.60;99.90
42833;DHT22;64089;51.478;5.692;2024-03-23T13:46:03;9.20;99.90
42833;DHT22;64089;51.478;5.692;2024-03-23T13:48:29;9.00;99.90
42833;DHT22;64089;51.478;5.692;2024-03-23T13:53:23;9.20;99.90
42833;DHT22;64089;51.478;5.692;2024-03-23T13:55:49;9.00;99.90
42833;DHT22;64089;51.478;5.692;2024-03-23T13:58:15;9.20;99.90
42833;DHT22;64089;51.478;5.692;2024-03-23T14:00:41;9.40;99.90
42833;DHT22;64089;51.478;5.692;2024-03-23T14:03:11;9.40;99.90
42833;DHT22;64089;51.478;5.692;2024-03-23T14:05:37;9.50;99.90
42833;DHT22;64089;51.478;5.692;2024-03-23T14:08:06;9.20;99.90
42833;DHT22;64089;51.478;5.692;2024-03-23T14:10:32;9.20;99.90
42833;DHT22;64089;51.478;5.692;2024-03-23T14:12:58;9.10;99.90
42833;DHT22;64089;51.478;5.692;2024-03-23T14:15:26;9.00;99.90
42833;DHT22;64089;51.478;5.692;2024-03-23T14:17:52;9.00;99.90
42833;DHT22;64089;51.478;5.692;2024-03-23T14:20:17;9.10;99.90
42833;DHT22;64089;51.478;5.692;2024-03-23T14:22:43;9.30;99.90
42833;DHT22;64089;51.478;5.692;2024-03-23T14:25:09;9.30;99.90
42833;DHT22;64089;51.478;5.692;2024-03-23T14:27:34;9.50;99.90
42833;DHT22;64089;51.478;5.692;2024-03-23T14:30:06;9.30;99.90
42833;DHT22;64089;51.478;5.692;2024-03-23T14:32:32;9.40;99.90
42833;DHT22;64089;51.478;5.692;2024-03-23T14:35:03;9.30;99.90
42833;DHT22;64089;51.478;5.692;2024-03-23T14:37:29;9.70;99.90
42833;DHT22;64089;51.478;5.692;2024-03-23T14:39:58;10.10;99.90
42833;DHT22;64089;51.478;5.692;2024-03-23T14:42:24;10.20;99.90
42833;DHT22;64089;51.478;5.692;2024-03-23T14:44:50;9.90;99.90
42833;DHT22;64089;51.478;5.692;2024-03-23T14:47:17;10.20;99.90
42833;DHT22;64089;51.478;5.692;2024-03-23T14:49:43;10.00;99.90
42833;DHT22;64089;51.478;5.692;2024-03-23T14:52:13;9.90;99.90
42833;DHT22;64089;51.478;5.692;2024-03-23T14:54:39;10.30;99.90
42833;DHT22;64089;51.478;5.692;2024-03-23T14:57:04;10.90;99.90
42833;DHT22;64089;51.478;5.692;2024-03-23T14:59:30;11.30;99.90
42833;DHT22;64089;51.478;5.692;2024-03-23T15:01:56;11.50;99.90
42833;DHT22;64089;51.478;5.692;2024-03-23T15:04:21;11.50;99.90
42833;DHT22;64089;51.478;5.692;2024-03-23T15:06:47;11.20;99.90
42833;DHT22;64089;51.478;5.692;2024-03-23T15:09:15;11.00;99.90
42833;DHT22;64089;51.478;5.692;2024-03-23T15:11:40;11.30;99.90
42833;DHT22;64089;51.478;5.692;2024-03-23T15:14:07;11.50;99.90
42833;DHT22;64089;51.478;5.692;2024-03-23T15:16:33;11.50;99.90
42833;DHT22;64089;51.478;5.692;2024-03-23T15:18:58;11.60;99.90
42833;DHT22;64089;51.478;5.692;2024-03-23T15:21:24;11.40;99.90
42833;DHT22;64089;51.478;5.692;2024-03-23T15:23:50;11.40;99.90
42833;DHT22;64089;51.478;5.692;2024-03-23T15:26:15;11.10;99.90
42833;DHT22;64089;51.478;5.692;2024-03-23T15:28:41;10.60;99.90
42833;DHT22;64089;51.478;5.692;2024-03-23T15:31:27;9.60;99.90
42833;DHT22;64089;51.478;5.692;2024-03-23T15:33:54;8.90;99.90
42833;DHT22;64089;51.478;5.692;2024-03-23T15:36:20;8.50;99.90
42833;DHT22;64089;51.478;5.692;2024-03-23T15:38:45;8.30;99.90
42833;DHT22;64089;51.478;5.692;2024-03-23T15:41:12;8.00;99.90
42833;DHT22;64089;51.478;5.692;2024-03-23T15:43:37;7.80;99.90
42833;DHT22;64089;51.478;5.692;2024-03-23T15:46:04;7.70;99.90
42833;DHT22;64089;51.478;5.692;2024-03-23T15:48:31;7.50;99.90
42833;DHT22;64089;51.478;5.692;2024-03-23T15:51:02;7.50;99.90
42833;DHT22;64089;51.478;5.692;2024-03-23T15:53:31;7.30;99.90
42833;DHT22;64089;51.478;5.692;2024-03-23T15:56:01;6.70;99.90
42833;DHT22;64089;51.478;5.692;2024-03-23T15:58:28;6.50;99.90
42833;DHT22;64089;51.478;5.692;2024-03-23T16:00:58;6.20;99.90
42833;DHT22;64089;51.478;5.692;2024-03-23T16:03:24;6.00;99.90
42833;DHT22;64089;51.478;5.692;2024-03-23T16:06:02;5.80;99.90
42833;DHT22;64089;51.478;5.692;2024-03-23T16:08:29;5.70;99.90
42833;DHT22;64089;51.478;5.692;2024-03-23T16:11:03;5.60;99.90
42833;DHT22;64089;51.478;5.692;2024-03-23T16:13:29;5.60;99.90
42833;DHT22;64089;51.478;5.692;2024-03-23T16:15:58;5.60;99.90
42833;DHT22;64089;51.478;5.692;2024-03-23T16:18:24;5.50;99.90
42833;DHT22;64089;51.478;5.692;2024-03-23T16:20:54;5.50;99.90
42833;DHT22;64089;51.478;5.692;2024-03-23T16:23:20;5.60;99.90
42833;DHT22;64089;51.478;5.692;2024-03-23T16:25:49;5.60;99.90
42833;DHT22;64089;51.478;5.692;2024-03-23T16:30:58;5.40;99.90
42833;DHT22;64089;51.478;5.692;2024-03-23T16:33:24;5.40;99.90
42833;DHT22;64089;51.478;5.692;2024-03-23T16:36:07;5.50;99.90
42833;DHT22;64089;51.478;5.692;2024-03-23T16:38:41;5.40;99.90
42833;DHT22;64089;51.478;5.692;2024-03-23T16:41:11;5.50;99.90
42833;DHT22;64089;51.478;5.692;2024-03-23T16:43:43;5.60;99.90
42833;DHT22;64089;51.478;5.692;2024-03-23T16:46:10;5.60;99.90
42833;DHT22;64089;51.478;5.692;2024-03-23T16:48:40;5.80;99.90
42833;DHT22;64089;51.478;5.692;2024-03-23T16:51:07;5.80;99.90